createdAt,value
2019-05-15T00:01:41.078Z,99.90
2019-05-15T00:04:09.996Z,99.90
2019-05-15T00:06:39.248Z,99.90
2019-05-15T00:09:08.602Z,99.90
2019-05-15T00:11:38.938Z,99.90
2019-05-15T00:14:08.777Z,99.90
2019-05-15T00:16:38.664Z,99.90
2019-05-15T00:19:08.643Z,99.90
2019-05-15T00:21:38.356Z,99.90
2019-05-15T00:24:12.721Z,99.90
2019-05-15T00:26:38.677Z,99.90
2019-05-15T00:29:15.614Z,99.90
2019-05-15T00:31:38.907Z,99.90
2019-05-15T00:34:12.869Z,99.90
2019-05-15T00:36:39.281Z,99.90
2019-05-15T00:39:08.670Z,99.90
2019-05-15T00:41:50.454Z,99.90
2019-05-15T00:44:09.331Z,99.90
2019-05-15T00:46:38.944Z,99.90
2019-05-15T00:49:08.690Z,99.90
2019-05-15T00:51:39.087Z,99.90
2019-05-15T00:54:08.538Z,99.90
2019-05-15T00:56:39.164Z,99.90
2019-05-15T00:59:08.505Z,99.90
2019-05-15T01:01:38.164Z,99.90
2019-05-15T01:04:08.048Z,99.90
2019-05-15T01:06:38.966Z,99.90
2019-05-15T01:09:08.458Z,99.90
2019-05-15T01:11:38.218Z,99.90
2019-05-15T01:14:11.930Z,99.90
2019-05-15T01:16:38.479Z,99.90
2019-05-15T01:19:09.265Z,99.90
2019-05-15T01:21:38.670Z,99.90
2019-05-15T01:24:08.431Z,99.90
2019-05-15T01:26:38.497Z,99.90
2019-05-15T01:29:09.045Z,99.90
2019-05-15T01:31:38.420Z,99.90
2019-05-15T01:34:09.023Z,99.90
2019-05-15T01:36:38.410Z,99.90
2019-05-15T01:39:08.082Z,99.90
2019-05-15T01:41:38.637Z,99.90
2019-05-15T01:44:08.866Z,99.90
2019-05-15T01:46:39.380Z,99.90
2019-05-15T01:49:08.707Z,99.90
2019-05-15T01:51:38.537Z,99.90
2019-05-15T01:54:09.127Z,99.90
2019-05-15T01:56:38.813Z,99.90
2019-05-15T01:59:08.648Z,99.90
2019-05-15T02:01:39.139Z,99.90
2019-05-15T02:04:08.748Z,99.90
2019-05-15T02:06:39.151Z,99.90
2019-05-15T02:09:09.068Z,99.90
2019-05-15T02:11:38.414Z,99.90
2019-05-15T02:14:08.322Z,99.90
2019-05-15T02:16:39.310Z,99.90
2019-05-15T02:19:09.080Z,99.90
2019-05-15T02:21:38.368Z,99.90
2019-05-15T02:24:08.030Z,99.90
2019-05-15T02:26:38.858Z,99.90
2019-05-15T02:29:10.493Z,99.90
2019-05-15T02:31:39.396Z,99.90
2019-05-15T02:34:10.171Z,99.90
2019-05-15T02:36:40.200Z,99.90
2019-05-15T02:39:09.627Z,99.90
2019-05-15T02:41:39.605Z,99.90
2019-05-15T02:44:10.870Z,99.90
2019-05-15T02:46:40.333Z,99.90
2019-05-15T02:49:09.521Z,99.90
2019-05-15T02:51:39.810Z,99.90
2019-05-15T02:54:10.302Z,99.90
2019-05-15T02:56:39.873Z,99.90
2019-05-15T02:59:09.357Z,99.90
2019-05-15T03:01:40.287Z,99.90
2019-05-15T03:04:09.548Z,99.90
2019-05-15T03:06:39.222Z,99.90
2019-05-15T03:09:09.528Z,99.90
2019-05-15T03:11:40.753Z,99.90
2019-05-15T03:14:09.809Z,99.90
2019-05-15T03:16:39.544Z,99.90
2019-05-15T03:19:09.962Z,99.90
2019-05-15T03:21:39.401Z,99.90
2019-05-15T03:24:10.143Z,99.90
2019-05-15T03:26:39.670Z,99.90
2019-05-15T03:29:09.778Z,99.90
2019-05-15T03:31:52.729Z,99.90
2019-05-15T03:34:20.857Z,99.90
2019-05-15T03:36:45.417Z,99.90
2019-05-15T03:39:11.805Z,99.90
2019-05-15T03:41:41.141Z,99.90
2019-05-15T03:44:10.324Z,99.90
2019-05-15T03:46:40.001Z,99.90
2019-05-15T03:49:09.416Z,99.90
2019-05-15T03:51:42.488Z,99.90
2019-05-15T03:54:09.553Z,99.90
2019-05-15T03:56:39.567Z,99.90
2019-05-15T03:59:09.551Z,99.90
2019-05-15T04:01:43.350Z,99.90
2019-05-15T04:04:09.797Z,99.90
2019-05-15T04:06:39.358Z,99.90
2019-05-15T04:09:09.558Z,99.90
2019-05-15T04:11:39.137Z,99.90
2019-05-15T04:14:10.197Z,99.90
2019-05-15T04:16:39.446Z,99.90
2019-05-15T04:19:09.613Z,99.90
2019-05-15T04:21:44.114Z,99.90
2019-05-15T04:24:10.355Z,99.90
2019-05-15T04:26:40.894Z,99.90
2019-05-15T04:29:10.077Z,99.90
2019-05-15T04:31:51.894Z,99.90
2019-05-15T04:34:10.140Z,99.90
2019-05-15T04:36:44.140Z,99.90
2019-05-15T04:39:10.243Z,99.90
2019-05-15T04:41:39.573Z,99.90
2019-05-15T04:44:10.485Z,99.90
2019-05-15T04:46:39.867Z,99.90
2019-05-15T04:49:09.360Z,99.90
2019-05-15T04:51:39.248Z,99.90
2019-05-15T04:54:09.484Z,99.90
2019-05-15T04:56:40.035Z,99.90
2019-05-15T04:59:10.345Z,99.90
2019-05-15T05:01:40.301Z,99.90
2019-05-15T05:04:09.882Z,99.90
2019-05-15T05:06:39.302Z,99.90
2019-05-15T05:09:09.247Z,99.90
2019-05-15T05:11:38.998Z,99.90
2019-05-15T05:14:08.625Z,99.90
2019-05-15T05:16:39.397Z,99.90
2019-05-15T05:19:09.082Z,99.90
2019-05-15T05:21:38.709Z,99.90
2019-05-15T05:24:08.185Z,99.90
2019-05-15T05:26:38.298Z,99.90
2019-05-15T05:29:08.521Z,99.90
2019-05-15T05:31:39.115Z,99.90
2019-05-15T05:34:08.560Z,99.90
2019-05-15T05:36:38.604Z,99.90
2019-05-15T05:39:09.554Z,99.90
2019-05-15T05:41:39.375Z,99.90
2019-05-15T05:44:08.716Z,99.90
2019-05-15T05:46:39.696Z,99.90
2019-05-15T05:49:08.861Z,99.90
2019-05-15T05:51:38.704Z,99.90
2019-05-15T05:54:08.445Z,99.90
2019-05-15T05:56:38.085Z,99.90
2019-05-15T05:59:09.451Z,99.90
2019-05-15T06:01:43.742Z,99.90
2019-05-15T06:04:09.172Z,99.90
2019-05-15T06:06:38.649Z,99.90
2019-05-15T06:09:09.250Z,99.90
2019-05-15T06:11:38.674Z,99.90
2019-05-15T06:14:10.705Z,99.90
2019-05-15T06:16:40.043Z,99.90
2019-05-15T06:19:09.476Z,99.90
2019-05-15T06:21:52.487Z,99.90
2019-05-15T06:24:13.237Z,99.90
2019-05-15T06:26:40.752Z,99.90
2019-05-15T06:29:10.010Z,99.90
2019-05-15T06:31:39.169Z,99.90
2019-05-15T06:34:08.424Z,99.90
2019-05-15T06:36:39.291Z,99.90
2019-05-15T06:39:09.116Z,99.90
2019-05-15T06:41:39.029Z,99.90
2019-05-15T06:44:08.502Z,99.90
2019-05-15T06:46:39.322Z,99.90
2019-05-15T06:49:08.620Z,99.90
2019-05-15T06:51:37.985Z,99.90
2019-05-15T06:54:08.771Z,99.90
2019-05-15T06:56:38.865Z,99.90
2019-05-15T06:59:08.891Z,99.90
2019-05-15T07:01:38.656Z,99.90
2019-05-15T07:04:08.488Z,99.90
2019-05-15T07:06:38.235Z,99.90
2019-05-15T07:09:09.521Z,99.90
2019-05-15T07:11:39.047Z,99.90
2019-05-15T07:14:08.926Z,99.90
2019-05-15T07:16:38.978Z,99.90
2019-05-15T07:19:08.495Z,99.90
2019-05-15T07:21:38.833Z,99.90
2019-05-15T07:24:09.239Z,99.90
2019-05-15T07:26:39.202Z,99.90
2019-05-15T07:29:08.574Z,99.90
2019-05-15T07:31:38.361Z,99.90
2019-05-15T07:34:08.391Z,99.90
2019-05-15T07:36:38.980Z,99.90
2019-05-15T07:39:09.010Z,99.90
2019-05-15T07:41:39.141Z,99.90
2019-05-15T07:44:08.615Z,99.90
2019-05-15T07:46:38.370Z,99.90
2019-05-15T07:49:09.135Z,99.90
2019-05-15T07:51:38.615Z,98.80
2019-05-15T07:54:09.103Z,97.60
2019-05-15T07:56:38.656Z,96.50
2019-05-15T07:59:08.074Z,94.00
2019-05-15T08:01:38.614Z,93.20
2019-05-15T08:04:22.797Z,92.10
2019-05-15T08:06:38.984Z,90.70
2019-05-15T08:09:08.613Z,88.20
2019-05-15T08:11:39.058Z,84.20
2019-05-15T08:14:09.060Z,82.50
2019-05-15T08:16:42.304Z,80.10
2019-05-15T08:19:11.508Z,72.50
2019-05-15T08:21:40.899Z,71.80
2019-05-15T08:24:10.060Z,72.50
2019-05-15T08:26:44.846Z,71.30
2019-05-15T08:29:10.197Z,70.70
2019-05-15T08:31:39.544Z,69.20
2019-05-15T08:34:13.605Z,67.90
2019-05-15T08:36:39.590Z,66.60
2019-05-15T08:39:08.788Z,65.70
2019-05-15T08:41:39.081Z,64.60
2019-05-15T08:44:09.101Z,62.60
2019-05-15T08:46:38.787Z,61.50
2019-05-15T08:49:09.250Z,59.80
2019-05-15T08:51:38.657Z,59.60
2019-05-15T08:54:08.503Z,58.70
2019-05-15T08:56:39.422Z,58.00
2019-05-15T08:59:08.956Z,57.10
2019-05-15T09:01:38.471Z,57.60
2019-05-15T09:04:08.895Z,58.20
2019-05-15T09:06:41.275Z,57.20
2019-05-15T09:09:09.720Z,55.60
2019-05-15T09:11:39.526Z,54.60
2019-05-15T09:14:08.944Z,55.40
2019-05-15T09:16:38.694Z,54.50
2019-05-15T09:19:08.442Z,52.80
2019-05-15T09:21:38.833Z,51.30
2019-05-15T09:24:09.374Z,51.40
2019-05-15T09:26:40.467Z,52.60
2019-05-15T09:29:09.875Z,52.40
2019-05-15T09:31:39.387Z,50.90
2019-05-15T09:34:09.235Z,52.20
2019-05-15T09:36:42.295Z,49.10
2019-05-15T09:39:13.127Z,49.40
2019-05-15T09:41:40.371Z,48.80
2019-05-15T09:44:09.580Z,49.30
2019-05-15T09:46:38.760Z,47.50
2019-05-15T09:49:08.845Z,46.80
2019-05-15T09:51:38.585Z,47.40
2019-05-15T09:54:08.211Z,48.20
2019-05-15T09:56:38.467Z,49.00
2019-05-15T09:59:09.034Z,50.60
2019-05-15T10:01:39.521Z,50.40
2019-05-15T10:04:08.823Z,51.20
2019-05-15T10:06:39.069Z,49.70
2019-05-15T10:09:09.202Z,48.70
2019-05-15T10:11:38.513Z,47.50
2019-05-15T10:14:09.868Z,46.60
2019-05-15T10:16:38.570Z,47.60
2019-05-15T10:19:08.984Z,49.30
2019-05-15T10:21:40.022Z,49.30
2019-05-15T10:24:09.557Z,48.40
2019-05-15T10:26:39.340Z,47.00
2019-05-15T10:29:09.222Z,42.60
2019-05-15T10:31:38.984Z,42.90
2019-05-15T10:34:09.138Z,44.80
2019-05-15T10:36:38.793Z,45.10
2019-05-15T10:39:08.564Z,45.30
2019-05-15T10:41:38.834Z,43.70
2019-05-15T10:44:09.147Z,43.20
2019-05-15T10:46:38.737Z,42.80
2019-05-15T10:49:08.629Z,45.00
2019-05-15T10:51:39.591Z,46.80
2019-05-15T10:54:08.967Z,43.80
2019-05-15T10:56:38.670Z,43.60
2019-05-15T10:59:08.495Z,44.00
2019-05-15T11:01:38.627Z,43.60
2019-05-15T11:04:09.082Z,43.60
2019-05-15T11:06:38.719Z,45.50
2019-05-15T11:09:08.573Z,43.70
2019-05-15T11:11:38.005Z,44.90
2019-05-15T11:14:09.092Z,42.90
2019-05-15T11:16:39.151Z,43.70
2019-05-15T11:19:08.510Z,44.00
2019-05-15T11:21:37.752Z,45.40
2019-05-15T11:24:08.722Z,46.40
2019-05-15T11:26:39.075Z,45.20
2019-05-15T11:29:09.624Z,46.40
2019-05-15T11:31:39.400Z,46.50
2019-05-15T11:34:09.315Z,45.30
2019-05-15T11:36:38.826Z,44.20
2019-05-15T11:39:08.480Z,46.90
2019-05-15T11:41:38.623Z,46.60
2019-05-15T11:44:08.060Z,46.70
2019-05-15T11:46:39.163Z,46.30
2019-05-15T11:49:09.448Z,45.60
2019-05-15T11:51:38.849Z,45.70
2019-05-15T11:54:08.295Z,47.00
2019-05-15T11:56:39.139Z,46.70
2019-05-15T11:59:08.657Z,46.30
2019-05-15T12:01:38.397Z,42.50
2019-05-15T12:04:09.218Z,44.10
2019-05-15T12:06:38.751Z,45.20
2019-05-15T12:09:09.118Z,46.00
2019-05-15T12:11:41.063Z,46.10
2019-05-15T12:14:09.561Z,46.40
2019-05-15T12:16:39.865Z,46.00
2019-05-15T12:19:16.645Z,46.00
2019-05-15T12:21:41.453Z,45.90
2019-05-15T12:24:10.916Z,45.90
2019-05-15T12:26:40.549Z,42.90
2019-05-15T12:29:10.274Z,43.30
2019-05-15T12:31:39.877Z,42.40
2019-05-15T12:34:09.464Z,42.90
2019-05-15T12:39:13.543Z,43.90
2019-05-15T13:01:51.484Z,44.30
2019-05-15T13:04:21.080Z,44.80
2019-05-15T13:07:11.598Z,44.50
2019-05-15T13:09:22.187Z,45.20
2019-05-15T13:11:51.736Z,45.60
2019-05-15T13:14:21.317Z,46.00
2019-05-15T13:16:54.157Z,44.80
2019-05-15T13:19:23.776Z,43.90
2019-05-15T13:21:53.454Z,44.70
2019-05-15T13:24:22.762Z,45.50
2019-05-15T13:26:52.016Z,45.10
2019-05-15T13:29:21.294Z,46.30
2019-05-15T13:31:50.910Z,47.20
2019-05-15T13:34:20.486Z,47.20
2019-05-15T13:36:50.067Z,46.70
2019-05-15T13:39:19.566Z,47.60
2019-05-15T13:41:49.236Z,47.90
2019-05-15T13:44:18.896Z,47.30
2019-05-15T13:46:48.612Z,48.40
2019-05-15T13:49:18.694Z,47.00
2019-05-15T13:51:48.980Z,45.90
2019-05-15T13:54:18.929Z,46.40
2019-05-15T13:56:48.899Z,46.90
2019-05-15T13:59:18.446Z,48.20
2019-05-15T14:01:48.670Z,48.40
2019-05-15T14:04:18.529Z,47.70
2019-05-15T14:06:48.669Z,48.10
2019-05-15T14:09:18.385Z,47.40
2019-05-15T14:11:49.287Z,45.80
2019-05-15T14:14:18.891Z,46.90
2019-05-15T14:16:49.129Z,47.60
2019-05-15T14:19:18.561Z,47.70
2019-05-15T14:21:49.043Z,48.50
2019-05-15T14:24:18.499Z,49.10
2019-05-15T14:26:48.511Z,49.50
2019-05-15T14:29:18.992Z,50.40
2019-05-15T14:31:48.476Z,49.70
2019-05-15T14:34:18.599Z,48.10
2019-05-15T14:36:48.507Z,47.10
2019-05-15T14:39:20.842Z,47.70
2019-05-15T14:41:49.177Z,47.20
2019-05-15T14:44:21.492Z,47.50
2019-05-15T14:46:50.842Z,44.60
2019-05-15T14:49:20.241Z,44.60
2019-05-15T14:52:03.248Z,44.80
2019-05-15T14:54:20.377Z,45.50
2019-05-15T14:56:53.572Z,44.10
2019-05-15T14:59:22.773Z,44.60
2019-05-15T15:01:51.962Z,45.20
2019-05-15T15:04:21.380Z,44.50
2019-05-15T15:06:50.582Z,45.40
2019-05-15T15:09:19.795Z,44.60
2019-05-15T15:11:48.976Z,45.90
2019-05-15T15:14:18.179Z,46.70
2019-05-15T15:16:48.943Z,47.50
2019-05-15T15:19:18.570Z,47.70
2019-05-15T15:21:48.697Z,47.80
2019-05-15T15:24:18.919Z,48.60
2019-05-15T15:26:49.305Z,48.30
2019-05-15T15:29:19.150Z,48.40
2019-05-15T15:31:49.429Z,48.90
2019-05-15T15:34:19.641Z,49.30
2019-05-15T15:36:49.051Z,49.60
2019-05-15T15:39:18.420Z,49.60
2019-05-15T15:41:48.542Z,50.10
2019-05-15T15:44:17.964Z,49.90
2019-05-15T15:46:48.485Z,49.40
2019-05-15T15:49:17.988Z,50.40
2019-05-15T15:51:48.797Z,50.40
2019-05-15T15:54:18.900Z,50.60
2019-05-15T15:56:48.685Z,51.20
2019-05-15T15:59:18.328Z,52.10
2019-05-15T16:01:49.374Z,52.80
2019-05-15T16:04:18.793Z,52.90
2019-05-15T16:06:48.455Z,52.90
2019-05-15T16:09:18.813Z,52.80
2019-05-15T16:11:49.282Z,52.00
2019-05-15T16:14:18.655Z,52.40
2019-05-15T16:16:48.673Z,52.60
2019-05-15T16:19:18.778Z,52.60
2019-05-15T16:21:49.018Z,52.50
2019-05-15T16:24:21.625Z,52.90
2019-05-15T16:26:49.860Z,53.40
2019-05-15T16:29:19.267Z,52.80
2019-05-15T16:31:49.231Z,53.40
2019-05-15T16:34:18.874Z,53.50
2019-05-15T16:36:48.897Z,53.50
2019-05-15T16:39:18.390Z,54.00
2019-05-15T16:41:48.922Z,53.10
2019-05-15T16:44:18.332Z,53.40
2019-05-15T16:46:48.166Z,53.50
2019-05-15T16:49:19.127Z,53.20
2019-05-15T16:51:49.224Z,52.70
2019-05-15T16:54:18.576Z,51.90
2019-05-15T16:56:48.849Z,50.50
2019-05-15T16:59:18.465Z,50.90
2019-05-15T17:01:48.870Z,51.10
2019-05-15T17:04:18.450Z,50.50
2019-05-15T17:06:49.345Z,51.20
2019-05-15T17:09:21.734Z,51.30
2019-05-15T17:11:49.688Z,51.00
2019-05-15T17:14:19.964Z,50.90
2019-05-15T17:16:49.275Z,50.80
2019-05-15T17:19:18.448Z,50.90
2019-05-15T17:21:48.158Z,51.40
2019-05-15T17:24:17.468Z,52.10
2019-05-15T17:26:48.426Z,52.40
2019-05-15T17:29:18.542Z,52.50
2019-05-15T17:31:48.842Z,52.80
2019-05-15T17:34:18.200Z,53.10
2019-05-15T17:36:48.927Z,52.80
2019-05-15T17:39:20.080Z,53.30
2019-05-15T17:41:49.276Z,52.50
2019-05-15T17:44:18.510Z,53.50
2019-05-15T17:46:48.914Z,53.00
2019-05-15T17:49:18.405Z,53.60
2019-05-15T17:51:48.885Z,53.40
2019-05-15T17:54:18.337Z,53.60
2019-05-15T17:56:48.881Z,53.80
2019-05-15T17:59:18.191Z,53.90
2019-05-15T18:01:49.115Z,53.70
2019-05-15T18:04:19.476Z,53.60
2019-05-15T18:06:48.653Z,53.10
2019-05-15T18:09:18.792Z,54.10
2019-05-15T18:11:48.164Z,54.10
2019-05-15T18:14:17.379Z,54.10
2019-05-15T18:16:48.765Z,55.10
2019-05-15T18:19:18.787Z,54.70
2019-05-15T18:21:49.886Z,54.00
2019-05-15T18:24:19.724Z,54.20
2019-05-15T18:26:49.040Z,54.60
2019-05-15T18:29:18.213Z,54.90
2019-05-15T18:31:48.097Z,55.90
2019-05-15T18:34:18.773Z,56.10
2019-05-15T18:36:48.470Z,56.30
2019-05-15T18:39:17.816Z,56.00
2019-05-15T18:41:48.500Z,56.10
2019-05-15T18:44:18.895Z,55.50
2019-05-15T18:46:48.819Z,55.10
2019-05-15T18:49:18.135Z,55.50
2019-05-15T18:51:47.914Z,55.80
2019-05-15T18:54:18.974Z,55.60
2019-05-15T18:56:49.043Z,56.20
2019-05-15T18:59:18.464Z,55.80
2019-05-15T19:01:48.072Z,55.00
2019-05-15T19:04:18.295Z,55.40
2019-05-15T19:06:47.681Z,53.80
2019-05-15T19:09:18.849Z,53.80
2019-05-15T19:11:48.819Z,53.80
2019-05-15T19:14:39.543Z,53.40
2019-05-15T19:17:08.672Z,53.90
2019-05-15T19:19:38.797Z,53.10
2019-05-15T19:22:08.168Z,52.50
2019-05-15T19:24:39.967Z,52.30
2019-05-15T19:27:08.255Z,52.60
2019-05-15T19:29:37.817Z,52.70
2019-05-15T19:32:10.912Z,52.20
2019-05-15T19:34:38.793Z,52.30
2019-05-15T19:37:08.165Z,50.60
2019-05-15T19:39:38.536Z,50.50
2019-05-15T19:42:08.901Z,49.70
2019-05-15T19:44:38.386Z,48.40
2019-05-15T19:47:07.992Z,48.50
2019-05-15T19:49:37.860Z,48.80
2019-05-15T19:52:08.539Z,48.90
2019-05-15T19:54:37.920Z,48.60
2019-05-15T19:57:08.007Z,48.60
2019-05-15T19:59:48.661Z,48.10
2019-05-15T20:02:18.007Z,47.40
2019-05-15T20:04:49.131Z,47.40
2019-05-15T20:07:18.604Z,46.70
2019-05-15T20:09:47.912Z,47.00
2019-05-15T20:12:18.559Z,47.20
2019-05-15T20:14:48.902Z,47.60
2019-05-15T20:17:18.376Z,47.90
2019-05-15T20:19:48.849Z,48.40
2019-05-15T20:22:18.835Z,48.90
2019-05-15T20:24:48.197Z,49.40
2019-05-15T20:27:18.768Z,49.90
2019-05-15T20:29:48.636Z,49.90
2019-05-15T20:32:18.435Z,49.90
2019-05-15T20:34:48.354Z,50.40
2019-05-15T20:37:18.237Z,50.40
2019-05-15T20:39:49.285Z,50.90
2019-05-15T20:42:18.576Z,51.10
2019-05-15T20:44:48.592Z,51.40
2019-05-15T20:47:18.713Z,51.70
2019-05-15T20:49:48.660Z,52.40
2019-05-15T20:52:21.351Z,52.60
2019-05-15T20:54:48.765Z,51.70
2019-05-15T20:57:17.935Z,52.00
2019-05-15T20:59:48.055Z,52.50
2019-05-15T21:02:18.703Z,52.50
2019-05-15T21:04:48.384Z,53.00
2019-05-15T21:07:27.611Z,53.40
2019-05-15T21:09:48.512Z,53.60
2019-05-15T21:12:17.979Z,53.80
2019-05-15T21:14:48.356Z,53.90
2019-05-15T21:17:19.818Z,54.20
2019-05-15T21:19:49.169Z,54.50
2019-05-15T21:22:18.289Z,54.60
2019-05-15T21:24:47.505Z,54.60
2019-05-15T21:27:18.686Z,55.00
2019-05-15T21:29:49.048Z,55.60
2019-05-15T21:32:19.631Z,56.00
2019-05-15T21:34:49.531Z,56.60
2019-05-15T21:37:18.829Z,57.20
2019-05-15T21:39:48.524Z,57.50
2019-05-15T21:42:19.811Z,58.00
2019-05-15T21:44:49.105Z,58.70
2019-05-15T21:47:18.881Z,59.40
2019-05-15T21:49:51.787Z,59.80
2019-05-15T21:52:23.894Z,60.40
2019-05-15T21:54:55.197Z,60.70
2019-05-15T21:57:32.904Z,61.00
2019-05-15T21:59:55.229Z,61.60
2019-05-15T22:02:25.245Z,62.20
2019-05-15T22:04:56.127Z,62.60
2019-05-15T22:07:25.279Z,62.80
2019-05-15T22:09:54.824Z,63.20
2019-05-15T22:12:24.104Z,64.00
2019-05-15T22:14:53.685Z,64.50
2019-05-15T22:17:22.959Z,64.90
2019-05-15T22:19:52.448Z,65.20
2019-05-15T22:22:21.652Z,66.00
2019-05-15T22:24:50.819Z,66.60
2019-05-15T22:27:21.024Z,67.20
2019-05-15T22:29:50.578Z,68.50
2019-05-15T22:32:20.062Z,69.00
2019-05-15T22:35:05.769Z,69.80
2019-05-15T22:37:21.667Z,71.00
2019-05-15T22:39:51.027Z,71.70
2019-05-15T22:42:20.271Z,72.30
2019-05-15T22:44:49.444Z,73.20
2019-05-15T22:47:19.900Z,73.80
2019-05-15T22:49:49.254Z,74.60
2019-05-15T22:52:18.533Z,75.80
2019-05-15T22:54:47.972Z,76.40
2019-05-15T22:57:17.195Z,77.40
2019-05-15T22:59:48.649Z,79.00
2019-05-15T23:02:18.027Z,79.80
2019-05-15T23:04:47.324Z,80.60
2019-05-15T23:07:18.566Z,81.70
2019-05-15T23:09:48.995Z,83.00
2019-05-15T23:12:18.354Z,84.20
2019-05-15T23:14:48.495Z,85.30
2019-05-15T23:17:17.763Z,86.00
2019-05-15T23:19:48.582Z,87.10
2019-05-15T23:22:18.623Z,88.30
2019-05-15T23:24:48.135Z,89.50
2019-05-15T23:27:18.130Z,90.40
2019-05-15T23:29:49.102Z,91.00
2019-05-15T23:32:18.480Z,91.30
2019-05-15T23:34:49.121Z,91.60
2019-05-15T23:37:18.492Z,91.60
2019-05-15T23:39:48.669Z,92.80
2019-05-15T23:42:18.531Z,93.30
2019-05-15T23:44:48.669Z,94.00
2019-05-15T23:47:18.074Z,94.50
2019-05-15T23:49:48.480Z,95.10
2019-05-15T23:52:17.872Z,95.20
2019-05-15T23:54:47.097Z,95.40
2019-05-15T23:57:18.012Z,95.50
2019-05-15T23:59:47.753Z,95.80
